sensor_id;sensor_type;location;lat;lon;timestamp;P1;durP1;ratioP1;P2;durP2;ratioP2
72325;SDS011;60278;47.980;18.780;2022-10-16T00:02:10;10.93;;;6.87;;
72325;SDS011;60278;47.980;18.780;2022-10-16T00:05:42;12.38;;;6.72;;
72325;SDS011;60278;47.980;18.780;2022-10-16T00:09:14;14.05;;;7.32;;
72325;SDS011;60278;47.980;18.780;2022-10-16T00:12:45;11.50;;;6.60;;
72325;SDS011;60278;47.980;18.780;2022-10-16T00:16:16;11.00;;;6.80;;
72325;SDS011;60278;47.980;18.780;2022-10-16T00:19:48;10.95;;;6.30;;
72325;SDS011;60278;47.980;18.780;2022-10-16T00:23:19;11.25;;;5.95;;
72325;SDS011;60278;47.980;18.780;2022-10-16T00:26:51;13.77;;;6.80;;
72325;SDS011;60278;47.980;18.780;2022-10-16T00:30:22;15.77;;;7.03;;
72325;SDS011;60278;47.980;18.780;2022-10-16T00:33:53;11.88;;;6.90;;
72325;SDS011;60278;47.980;18.780;2022-10-16T00:37:25;15.67;;;6.30;;
72325;SDS011;60278;47.980;18.780;2022-10-16T00:40:56;11.32;;;6.68;;
72325;SDS011;60278;47.980;18.780;2022-10-16T00:48:20;10.43;;;6.33;;
72325;SDS011;60278;47.980;18.780;2022-10-16T00:51:52;15.95;;;6.68;;
72325;SDS011;60278;47.980;18.780;2022-10-16T00:55:24;12.55;;;6.50;;
72325;SDS011;60278;47.980;18.780;2022-10-16T00:58:56;12.88;;;6.75;;
72325;SDS011;60278;47.980;18.780;2022-10-16T01:02:29;11.07;;;6.00;;
72325;SDS011;60278;47.980;18.780;2022-10-16T01:09:45;11.50;;;7.13;;
72325;SDS011;60278;47.980;18.780;2022-10-16T01:13:38;12.10;;;6.60;;
72325;SDS011;60278;47.980;18.780;2022-10-16T01:17:15;14.20;;;6.32;;
72325;SDS011;60278;47.980;18.780;2022-10-16T01:21:27;12.88;;;6.63;;
72325;SDS011;60278;47.980;18.780;2022-10-16T01:25:02;12.37;;;6.83;;
72325;SDS011;60278;47.980;18.780;2022-10-16T01:28:54;15.25;;;7.07;;
72325;SDS011;60278;47.980;18.780;2022-10-16T01:32:30;15.43;;;6.88;;
72325;SDS011;60278;47.980;18.780;2022-10-16T01:36:10;14.55;;;6.57;;
72325;SDS011;60278;47.980;18.780;2022-10-16T01:39:46;9.63;;;5.77;;
72325;SDS011;60278;47.980;18.780;2022-10-16T01:43:22;11.88;;;6.88;;
72325;SDS011;60278;47.980;18.780;2022-10-16T01:46:58;15.25;;;7.70;;
72325;SDS011;60278;47.980;18.780;2022-10-16T01:50:31;15.43;;;7.27;;
72325;SDS011;60278;47.980;18.780;2022-10-16T01:54:06;11.05;;;6.18;;
72325;SDS011;60278;47.980;18.780;2022-10-16T01:57:41;11.80;;;6.15;;
72325;SDS011;60278;47.980;18.780;2022-10-16T02:01:17;15.00;;;6.70;;
72325;SDS011;60278;47.980;18.780;2022-10-16T02:04:55;10.25;;;6.05;;
72325;SDS011;60278;47.980;18.780;2022-10-16T02:08:30;12.57;;;6.32;;
72325;SDS011;60278;47.980;18.780;2022-10-16T02:12:45;15.77;;;7.03;;
72325;SDS011;60278;47.980;18.780;2022-10-16T02:15:57;14.27;;;6.83;;
72325;SDS011;60278;47.980;18.780;2022-10-16T02:19:29;12.85;;;6.55;;
72325;SDS011;60278;47.980;18.780;2022-10-16T02:23:00;12.88;;;6.60;;
72325;SDS011;60278;47.980;18.780;2022-10-16T02:33:51;13.85;;;6.72;;
72325;SDS011;60278;47.980;18.780;2022-10-16T02:37:23;16.67;;;6.97;;
72325;SDS011;60278;47.980;18.780;2022-10-16T02:40:56;11.57;;;7.20;;
72325;SDS011;60278;47.980;18.780;2022-10-16T02:44:27;14.50;;;7.63;;
72325;SDS011;60278;47.980;18.780;2022-10-16T02:47:58;16.95;;;7.85;;
72325;SDS011;60278;47.980;18.780;2022-10-16T02:51:29;12.10;;;7.73;;
72325;SDS011;60278;47.980;18.780;2022-10-16T02:55:00;13.70;;;7.72;;
72325;SDS011;60278;47.980;18.780;2022-10-16T02:58:31;15.65;;;7.43;;
72325;SDS011;60278;47.980;18.780;2022-10-16T03:02:02;12.10;;;7.17;;
72325;SDS011;60278;47.980;18.780;2022-10-16T03:05:33;12.63;;;6.95;;
72325;SDS011;60278;47.980;18.780;2022-10-16T03:09:04;11.63;;;7.00;;
72325;SDS011;60278;47.980;18.780;2022-10-16T03:12:35;13.70;;;7.23;;
72325;SDS011;60278;47.980;18.780;2022-10-16T03:16:07;14.05;;;7.65;;
72325;SDS011;60278;47.980;18.780;2022-10-16T03:19:38;12.00;;;7.20;;
72325;SDS011;60278;47.980;18.780;2022-10-16T03:23:09;12.38;;;7.65;;
72325;SDS011;60278;47.980;18.780;2022-10-16T03:26:41;21.83;;;7.87;;
72325;SDS011;60278;47.980;18.780;2022-10-16T03:30:12;12.77;;;7.15;;
72325;SDS011;60278;47.980;18.780;2022-10-16T03:33:43;11.98;;;7.45;;
72325;SDS011;60278;47.980;18.780;2022-10-16T03:37:14;12.87;;;7.30;;
72325;SDS011;60278;47.980;18.780;2022-10-16T03:40:45;16.55;;;7.60;;
72325;SDS011;60278;47.980;18.780;2022-10-16T03:44:16;16.23;;;7.20;;
72325;SDS011;60278;47.980;18.780;2022-10-16T03:47:47;12.53;;;7.00;;
72325;SDS011;60278;47.980;18.780;2022-10-16T03:51:18;12.30;;;6.65;;
72325;SDS011;60278;47.980;18.780;2022-10-16T03:54:49;13.20;;;7.72;;
72325;SDS011;60278;47.980;18.780;2022-10-16T03:58:20;12.38;;;7.45;;
72325;SDS011;60278;47.980;18.780;2022-10-16T04:01:51;17.07;;;7.73;;
72325;SDS011;60278;47.980;18.780;2022-10-16T04:05:22;13.48;;;7.07;;
72325;SDS011;60278;47.980;18.780;2022-10-16T04:08:53;21.55;;;8.73;;
72325;SDS011;60278;47.980;18.780;2022-10-16T04:12:25;14.33;;;8.60;;
72325;SDS011;60278;47.980;18.780;2022-10-16T04:15:56;16.70;;;9.48;;
72325;SDS011;60278;47.980;18.780;2022-10-16T04:19:28;20.38;;;9.18;;
72325;SDS011;60278;47.980;18.780;2022-10-16T04:22:59;15.93;;;9.03;;
72325;SDS011;60278;47.980;18.780;2022-10-16T04:26:30;24.50;;;14.82;;
72325;SDS011;60278;47.980;18.780;2022-10-16T04:30:01;20.00;;;11.52;;
72325;SDS011;60278;47.980;18.780;2022-10-16T04:33:33;25.70;;;12.98;;
72325;SDS011;60278;47.980;18.780;2022-10-16T04:37:04;24.77;;;12.80;;
72325;SDS011;60278;47.980;18.780;2022-10-16T04:40:35;18.90;;;9.90;;
72325;SDS011;60278;47.980;18.780;2022-10-16T04:44:09;22.85;;;11.10;;
72325;SDS011;60278;47.980;18.780;2022-10-16T04:47:40;19.13;;;11.00;;
72325;SDS011;60278;47.980;18.780;2022-10-16T04:51:11;17.30;;;10.10;;
72325;SDS011;60278;47.980;18.780;2022-10-16T04:54:42;15.52;;;9.27;;
72325;SDS011;60278;47.980;18.780;2022-10-16T04:58:15;22.50;;;10.90;;
72325;SDS011;60278;47.980;18.780;2022-10-16T05:01:46;23.10;;;11.18;;
72325;SDS011;60278;47.980;18.780;2022-10-16T05:05:17;25.58;;;11.73;;
72325;SDS011;60278;47.980;18.780;2022-10-16T05:08:51;24.75;;;10.77;;
72325;SDS011;60278;47.980;18.780;2022-10-16T05:12:22;17.07;;;9.07;;
72325;SDS011;60278;47.980;18.780;2022-10-16T05:15:53;16.08;;;9.63;;
72325;SDS011;60278;47.980;18.780;2022-10-16T05:19:25;16.08;;;10.50;;
72325;SDS011;60278;47.980;18.780;2022-10-16T05:22:56;19.17;;;9.20;;
72325;SDS011;60278;47.980;18.780;2022-10-16T05:26:27;17.05;;;9.38;;
72325;SDS011;60278;47.980;18.780;2022-10-16T05:29:58;13.63;;;7.57;;
72325;SDS011;60278;47.980;18.780;2022-10-16T05:33:29;14.67;;;7.43;;
72325;SDS011;60278;47.980;18.780;2022-10-16T05:37:00;15.60;;;8.52;;
72325;SDS011;60278;47.980;18.780;2022-10-16T05:40:31;13.60;;;8.55;;
72325;SDS011;60278;47.980;18.780;2022-10-16T05:44:05;15.63;;;9.10;;
72325;SDS011;60278;47.980;18.780;2022-10-16T05:47:36;14.23;;;8.17;;
72325;SDS011;60278;47.980;18.780;2022-10-16T05:51:10;15.02;;;8.25;;
72325;SDS011;60278;47.980;18.780;2022-10-16T05:54:42;11.45;;;7.47;;
72325;SDS011;60278;47.980;18.780;2022-10-16T05:58:14;14.50;;;7.27;;
72325;SDS011;60278;47.980;18.780;2022-10-16T06:01:45;15.30;;;8.07;;
72325;SDS011;60278;47.980;18.780;2022-10-16T06:05:16;12.15;;;7.72;;
72325;SDS011;60278;47.980;18.780;2022-10-16T06:08:47;13.17;;;7.13;;
72325;SDS011;60278;47.980;18.780;2022-10-16T06:12:20;15.32;;;6.60;;
72325;SDS011;60278;47.980;18.780;2022-10-16T06:15:51;10.95;;;7.05;;
72325;SDS011;60278;47.980;18.780;2022-10-16T06:19:22;11.13;;;7.13;;
72325;SDS011;60278;47.980;18.780;2022-10-16T06:22:53;10.63;;;6.83;;
72325;SDS011;60278;47.980;18.780;2022-10-16T06:26:26;17.40;;;9.45;;
72325;SDS011;60278;47.980;18.780;2022-10-16T06:29:58;10.70;;;7.20;;
72325;SDS011;60278;47.980;18.780;2022-10-16T06:33:29;11.97;;;7.33;;
72325;SDS011;60278;47.980;18.780;2022-10-16T06:37:00;16.30;;;8.75;;
72325;SDS011;60278;47.980;18.780;2022-10-16T06:40:31;14.15;;;8.13;;
72325;SDS011;60278;47.980;18.780;2022-10-16T06:44:04;13.97;;;7.30;;
72325;SDS011;60278;47.980;18.780;2022-10-16T06:47:37;11.35;;;6.60;;
72325;SDS011;60278;47.980;18.780;2022-10-16T06:51:09;11.32;;;7.13;;
72325;SDS011;60278;47.980;18.780;2022-10-16T06:54:42;9.43;;;6.45;;
72325;SDS011;60278;47.980;18.780;2022-10-16T06:58:13;11.30;;;7.00;;
72325;SDS011;60278;47.980;18.780;2022-10-16T07:01:44;10.80;;;6.53;;
72325;SDS011;60278;47.980;18.780;2022-10-16T07:05:15;11.18;;;7.18;;
72325;SDS011;60278;47.980;18.780;2022-10-16T07:08:47;14.30;;;7.03;;
72325;SDS011;60278;47.980;18.780;2022-10-16T07:12:19;11.40;;;6.97;;
72325;SDS011;60278;47.980;18.780;2022-10-16T07:15:50;13.00;;;6.95;;
72325;SDS011;60278;47.980;18.780;2022-10-16T07:19:21;10.30;;;6.80;;
72325;SDS011;60278;47.980;18.780;2022-10-16T07:22:52;9.88;;;6.07;;
72325;SDS011;60278;47.980;18.780;2022-10-16T07:26:24;8.50;;;5.32;;
72325;SDS011;60278;47.980;18.780;2022-10-16T07:29:55;8.63;;;5.38;;
72325;SDS011;60278;47.980;18.780;2022-10-16T07:33:26;9.67;;;5.83;;
72325;SDS011;60278;47.980;18.780;2022-10-16T07:36:57;12.68;;;5.53;;
72325;SDS011;60278;47.980;18.780;2022-10-16T07:40:28;9.10;;;5.35;;
72325;SDS011;60278;47.980;18.780;2022-10-16T07:43:59;11.60;;;5.60;;
72325;SDS011;60278;47.980;18.780;2022-10-16T07:47:31;11.73;;;5.88;;
72325;SDS011;60278;47.980;18.780;2022-10-16T07:51:03;7.90;;;5.38;;
72325;SDS011;60278;47.980;18.780;2022-10-16T07:54:36;10.23;;;5.47;;
72325;SDS011;60278;47.980;18.780;2022-10-16T07:58:07;9.00;;;5.53;;
72325;SDS011;60278;47.980;18.780;2022-10-16T08:01:38;9.20;;;5.30;;
72325;SDS011;60278;47.980;18.780;2022-10-16T08:05:09;8.40;;;5.38;;
72325;SDS011;60278;47.980;18.780;2022-10-16T08:08:41;8.97;;;5.47;;
72325;SDS011;60278;47.980;18.780;2022-10-16T08:12:12;9.60;;;5.30;;
72325;SDS011;60278;47.980;18.780;2022-10-16T08:15:44;9.27;;;5.20;;
72325;SDS011;60278;47.980;18.780;2022-10-16T08:19:15;10.00;;;5.27;;
72325;SDS011;60278;47.980;18.780;2022-10-16T08:22:46;8.13;;;5.13;;
72325;SDS011;60278;47.980;18.780;2022-10-16T08:26:17;10.48;;;5.63;;
72325;SDS011;60278;47.980;18.780;2022-10-16T08:29:49;7.73;;;4.83;;
72325;SDS011;60278;47.980;18.780;2022-10-16T08:33:20;8.68;;;4.78;;
72325;SDS011;60278;47.980;18.780;2022-10-16T08:36:54;9.85;;;5.40;;
72325;SDS011;60278;47.980;18.780;2022-10-16T08:40:27;11.98;;;5.22;;
72325;SDS011;60278;47.980;18.780;2022-10-16T08:51:54;15.35;;;4.78;;
72325;SDS011;60278;47.980;18.780;2022-10-16T08:59:03;7.97;;;4.80;;
72325;SDS011;60278;47.980;18.780;2022-10-16T09:02:50;10.18;;;4.70;;
72325;SDS011;60278;47.980;18.780;2022-10-16T09:06:31;7.80;;;4.87;;
72325;SDS011;60278;47.980;18.780;2022-10-16T09:13:51;10.23;;;4.32;;
72325;SDS011;60278;47.980;18.780;2022-10-16T09:24:48;10.20;;;3.95;;
72325;SDS011;60278;47.980;18.780;2022-10-16T09:28:20;8.57;;;4.05;;
72325;SDS011;60278;47.980;18.780;2022-10-16T09:31:51;9.47;;;3.93;;
72325;SDS011;60278;47.980;18.780;2022-10-16T09:35:58;9.70;;;4.70;;
72325;SDS011;60278;47.980;18.780;2022-10-16T09:39:24;7.40;;;4.30;;
72325;SDS011;60278;47.980;18.780;2022-10-16T09:43:41;13.37;;;4.83;;
72325;SDS011;60278;47.980;18.780;2022-10-16T09:46:49;10.35;;;4.68;;
72325;SDS011;60278;47.980;18.780;2022-10-16T09:50:24;12.73;;;5.13;;
72325;SDS011;60278;47.980;18.780;2022-10-16T09:53:58;9.68;;;4.80;;
72325;SDS011;60278;47.980;18.780;2022-10-16T09:57:31;8.80;;;5.10;;
72325;SDS011;60278;47.980;18.780;2022-10-16T10:01:03;11.38;;;6.63;;
72325;SDS011;60278;47.980;18.780;2022-10-16T10:05:17;8.80;;;4.90;;
72325;SDS011;60278;47.980;18.780;2022-10-16T10:08:31;8.67;;;4.57;;
72325;SDS011;60278;47.980;18.780;2022-10-16T10:12:03;8.70;;;4.63;;
72325;SDS011;60278;47.980;18.780;2022-10-16T10:15:35;6.85;;;4.40;;
72325;SDS011;60278;47.980;18.780;2022-10-16T10:19:13;7.23;;;4.27;;
72325;SDS011;60278;47.980;18.780;2022-10-16T10:22:46;10.35;;;4.97;;
72325;SDS011;60278;47.980;18.780;2022-10-16T10:26:18;15.45;;;5.13;;
72325;SDS011;60278;47.980;18.780;2022-10-16T10:33:52;7.17;;;4.17;;
72325;SDS011;60278;47.980;18.780;2022-10-16T10:49:30;8.55;;;3.90;;
72325;SDS011;60278;47.980;18.780;2022-10-16T11:12:17;7.13;;;4.00;;
72325;SDS011;60278;47.980;18.780;2022-10-16T11:15:52;8.48;;;4.03;;
72325;SDS011;60278;47.980;18.780;2022-10-16T11:23:14;10.37;;;3.87;;
72325;SDS011;60278;47.980;18.780;2022-10-16T11:26:51;9.65;;;3.90;;
72325;SDS011;60278;47.980;18.780;2022-10-16T11:30:25;7.65;;;4.32;;
72325;SDS011;60278;47.980;18.780;2022-10-16T11:37:53;8.77;;;4.13;;
72325;SDS011;60278;47.980;18.780;2022-10-16T11:48:37;7.90;;;4.23;;
72325;SDS011;60278;47.980;18.780;2022-10-16T11:55:44;6.63;;;3.70;;
72325;SDS011;60278;47.980;18.780;2022-10-16T11:59:28;6.05;;;4.05;;
72325;SDS011;60278;47.980;18.780;2022-10-16T12:10:32;8.80;;;3.75;;
72325;SDS011;60278;47.980;18.780;2022-10-16T12:17:41;9.90;;;6.23;;
72325;SDS011;60278;47.980;18.780;2022-10-16T12:21:12;10.13;;;4.10;;
72325;SDS011;60278;47.980;18.780;2022-10-16T12:24:46;7.47;;;3.50;;
72325;SDS011;60278;47.980;18.780;2022-10-16T12:28:25;6.27;;;4.10;;
72325;SDS011;60278;47.980;18.780;2022-10-16T12:31:58;8.02;;;4.30;;
72325;SDS011;60278;47.980;18.780;2022-10-16T12:35:31;8.60;;;4.25;;
72325;SDS011;60278;47.980;18.780;2022-10-16T12:39:16;8.30;;;3.90;;
72325;SDS011;60278;47.980;18.780;2022-10-16T12:42:52;7.70;;;4.33;;
72325;SDS011;60278;47.980;18.780;2022-10-16T12:50:00;8.82;;;4.55;;
72325;SDS011;60278;47.980;18.780;2022-10-16T12:53:31;8.27;;;4.20;;
72325;SDS011;60278;47.980;18.780;2022-10-16T13:00:50;8.90;;;4.90;;
72325;SDS011;60278;47.980;18.780;2022-10-16T13:20:46;6.53;;;3.97;;
72325;SDS011;60278;47.980;18.780;2022-10-16T13:24:25;7.63;;;4.15;;
72325;SDS011;60278;47.980;18.780;2022-10-16T13:28:01;7.68;;;4.53;;
72325;SDS011;60278;47.980;18.780;2022-10-16T13:31:42;8.33;;;4.10;;
72325;SDS011;60278;47.980;18.780;2022-10-16T13:35:18;6.97;;;4.18;;
72325;SDS011;60278;47.980;18.780;2022-10-16T13:39:06;10.88;;;5.03;;
72325;SDS011;60278;47.980;18.780;2022-10-16T13:42:43;7.53;;;4.33;;
72325;SDS011;60278;47.980;18.780;2022-10-16T13:46:15;7.60;;;3.90;;
72325;SDS011;60278;47.980;18.780;2022-10-16T13:49:58;9.13;;;4.13;;
72325;SDS011;60278;47.980;18.780;2022-10-16T13:53:34;8.55;;;4.45;;
72325;SDS011;60278;47.980;18.780;2022-10-16T13:57:05;7.93;;;3.97;;
72325;SDS011;60278;47.980;18.780;2022-10-16T14:00:38;8.40;;;4.43;;
72325;SDS011;60278;47.980;18.780;2022-10-16T14:04:10;11.00;;;4.22;;
72325;SDS011;60278;47.980;18.780;2022-10-16T14:07:44;8.17;;;4.13;;
72325;SDS011;60278;47.980;18.780;2022-10-16T14:11:21;21.42;;;8.63;;
72325;SDS011;60278;47.980;18.780;2022-10-16T14:14:54;13.63;;;5.82;;
72325;SDS011;60278;47.980;18.780;2022-10-16T14:18:27;8.80;;;5.10;;
72325;SDS011;60278;47.980;18.780;2022-10-16T14:21:59;14.68;;;6.35;;
72325;SDS011;60278;47.980;18.780;2022-10-16T14:25:32;9.70;;;4.43;;
72325;SDS011;60278;47.980;18.780;2022-10-16T14:29:09;7.07;;;4.18;;
72325;SDS011;60278;47.980;18.780;2022-10-16T14:32:52;22.13;;;8.20;;
72325;SDS011;60278;47.980;18.780;2022-10-16T14:36:25;13.20;;;4.60;;
72325;SDS011;60278;47.980;18.780;2022-10-16T14:39:58;93.95;;;25.25;;
72325;SDS011;60278;47.980;18.780;2022-10-16T14:43:32;13.33;;;5.10;;
72325;SDS011;60278;47.980;18.780;2022-10-16T14:47:23;9.15;;;5.38;;
72325;SDS011;60278;47.980;18.780;2022-10-16T14:50:57;9.10;;;4.63;;
72325;SDS011;60278;47.980;18.780;2022-10-16T14:54:28;8.38;;;4.22;;
72325;SDS011;60278;47.980;18.780;2022-10-16T14:57:58;11.57;;;5.23;;
72325;SDS011;60278;47.980;18.780;2022-10-16T15:01:30;7.90;;;4.32;;
72325;SDS011;60278;47.980;18.780;2022-10-16T15:05:02;7.15;;;4.35;;
72325;SDS011;60278;47.980;18.780;2022-10-16T15:08:43;6.67;;;4.07;;
72325;SDS011;60278;47.980;18.780;2022-10-16T15:12:14;11.18;;;4.68;;
72325;SDS011;60278;47.980;18.780;2022-10-16T15:15:46;6.97;;;4.20;;
72325;SDS011;60278;47.980;18.780;2022-10-16T15:19:19;7.53;;;4.73;;
72325;SDS011;60278;47.980;18.780;2022-10-16T15:22:50;7.53;;;4.35;;
72325;SDS011;60278;47.980;18.780;2022-10-16T15:26:22;10.20;;;5.63;;
72325;SDS011;60278;47.980;18.780;2022-10-16T15:29:54;10.63;;;5.80;;
72325;SDS011;60278;47.980;18.780;2022-10-16T15:33:26;19.00;;;10.47;;
72325;SDS011;60278;47.980;18.780;2022-10-16T15:37:02;38.58;;;23.63;;
72325;SDS011;60278;47.980;18.780;2022-10-16T15:40:34;21.60;;;11.77;;
72325;SDS011;60278;47.980;18.780;2022-10-16T15:44:05;20.63;;;10.27;;
72325;SDS011;60278;47.980;18.780;2022-10-16T15:47:36;19.27;;;10.40;;
72325;SDS011;60278;47.980;18.780;2022-10-16T15:51:07;16.27;;;8.77;;
72325;SDS011;60278;47.980;18.780;2022-10-16T15:54:38;21.93;;;10.90;;
72325;SDS011;60278;47.980;18.780;2022-10-16T15:58:09;26.63;;;12.25;;
72325;SDS011;60278;47.980;18.780;2022-10-16T16:01:40;24.88;;;12.52;;
72325;SDS011;60278;47.980;18.780;2022-10-16T16:05:11;16.50;;;7.38;;
72325;SDS011;60278;47.980;18.780;2022-10-16T16:08:42;9.87;;;6.77;;
72325;SDS011;60278;47.980;18.780;2022-10-16T16:12:13;10.00;;;6.22;;
72325;SDS011;60278;47.980;18.780;2022-10-16T16:15:44;11.35;;;6.00;;
72325;SDS011;60278;47.980;18.780;2022-10-16T16:19:15;14.87;;;7.27;;
72325;SDS011;60278;47.980;18.780;2022-10-16T16:22:51;21.15;;;12.70;;
72325;SDS011;60278;47.980;18.780;2022-10-16T16:26:28;21.98;;;13.13;;
72325;SDS011;60278;47.980;18.780;2022-10-16T16:30:06;27.60;;;15.10;;
72325;SDS011;60278;47.980;18.780;2022-10-16T16:33:40;26.70;;;13.13;;
72325;SDS011;60278;47.980;18.780;2022-10-16T16:37:11;22.55;;;13.05;;
72325;SDS011;60278;47.980;18.780;2022-10-16T16:40:42;22.00;;;11.68;;
72325;SDS011;60278;47.980;18.780;2022-10-16T16:44:14;29.80;;;16.27;;
72325;SDS011;60278;47.980;18.780;2022-10-16T16:47:46;30.23;;;16.98;;
72325;SDS011;60278;47.980;18.780;2022-10-16T16:51:17;34.28;;;19.08;;
72325;SDS011;60278;47.980;18.780;2022-10-16T16:54:50;28.53;;;15.03;;
72325;SDS011;60278;47.980;18.780;2022-10-16T16:58:22;18.65;;;10.98;;
72325;SDS011;60278;47.980;18.780;2022-10-16T17:01:53;35.03;;;16.08;;
72325;SDS011;60278;47.980;18.780;2022-10-16T17:05:24;15.43;;;8.93;;
72325;SDS011;60278;47.980;18.780;2022-10-16T17:08:56;23.88;;;11.93;;
72325;SDS011;60278;47.980;18.780;2022-10-16T17:12:28;28.50;;;16.20;;
72325;SDS011;60278;47.980;18.780;2022-10-16T17:16:01;29.63;;;16.08;;
72325;SDS011;60278;47.980;18.780;2022-10-16T17:19:32;31.10;;;16.40;;
72325;SDS011;60278;47.980;18.780;2022-10-16T17:23:03;39.75;;;20.63;;
72325;SDS011;60278;47.980;18.780;2022-10-16T17:26:34;34.00;;;17.40;;
72325;SDS011;60278;47.980;18.780;2022-10-16T17:30:11;38.50;;;18.30;;
72325;SDS011;60278;47.980;18.780;2022-10-16T17:33:42;34.25;;;18.00;;
72325;SDS011;60278;47.980;18.780;2022-10-16T17:37:14;38.25;;;19.63;;
72325;SDS011;60278;47.980;18.780;2022-10-16T17:40:45;30.57;;;15.83;;
72325;SDS011;60278;47.980;18.780;2022-10-16T17:44:16;27.33;;;14.25;;
72325;SDS011;60278;47.980;18.780;2022-10-16T17:47:50;33.28;;;17.02;;
72325;SDS011;60278;47.980;18.780;2022-10-16T17:51:25;44.35;;;20.50;;
72325;SDS011;60278;47.980;18.780;2022-10-16T17:54:59;24.17;;;11.70;;
72325;SDS011;60278;47.980;18.780;2022-10-16T17:58:30;24.38;;;12.25;;
72325;SDS011;60278;47.980;18.780;2022-10-16T18:02:02;21.65;;;10.70;;
72325;SDS011;60278;47.980;18.780;2022-10-16T18:05:36;20.97;;;9.70;;
72325;SDS011;60278;47.980;18.780;2022-10-16T18:09:08;23.20;;;12.07;;
72325;SDS011;60278;47.980;18.780;2022-10-16T18:12:40;21.65;;;10.32;;
72325;SDS011;60278;47.980;18.780;2022-10-16T18:16:11;17.73;;;9.63;;
72325;SDS011;60278;47.980;18.780;2022-10-16T18:19:45;25.58;;;13.45;;
72325;SDS011;60278;47.980;18.780;2022-10-16T18:23:16;21.70;;;12.10;;
72325;SDS011;60278;47.980;18.780;2022-10-16T18:26:48;22.98;;;11.77;;
72325;SDS011;60278;47.980;18.780;2022-10-16T18:30:19;18.93;;;10.63;;
72325;SDS011;60278;47.980;18.780;2022-10-16T18:33:50;18.05;;;10.25;;
72325;SDS011;60278;47.980;18.780;2022-10-16T18:37:22;18.33;;;10.45;;
72325;SDS011;60278;47.980;18.780;2022-10-16T18:40:53;26.50;;;12.00;;
72325;SDS011;60278;47.980;18.780;2022-10-16T18:44:25;28.65;;;15.45;;
72325;SDS011;60278;47.980;18.780;2022-10-16T18:47:57;29.25;;;13.23;;
72325;SDS011;60278;47.980;18.780;2022-10-16T18:51:32;29.70;;;14.53;;
72325;SDS011;60278;47.980;18.780;2022-10-16T18:55:05;16.85;;;8.93;;
72325;SDS011;60278;47.980;18.780;2022-10-16T18:58:39;15.23;;;9.13;;
72325;SDS011;60278;47.980;18.780;2022-10-16T19:02:11;11.38;;;7.07;;
72325;SDS011;60278;47.980;18.780;2022-10-16T19:05:42;13.80;;;8.60;;
72325;SDS011;60278;47.980;18.780;2022-10-16T19:09:16;12.88;;;6.72;;
72325;SDS011;60278;47.980;18.780;2022-10-16T19:12:48;14.85;;;8.15;;
72325;SDS011;60278;47.980;18.780;2022-10-16T19:16:21;16.83;;;7.93;;
72325;SDS011;60278;47.980;18.780;2022-10-16T19:20:03;12.60;;;6.57;;
72325;SDS011;60278;47.980;18.780;2022-10-16T19:23:35;18.58;;;6.63;;
72325;SDS011;60278;47.980;18.780;2022-10-16T19:27:06;13.80;;;7.50;;
72325;SDS011;60278;47.980;18.780;2022-10-16T19:30:38;9.82;;;6.70;;
72325;SDS011;60278;47.980;18.780;2022-10-16T19:34:11;17.15;;;6.72;;
72325;SDS011;60278;47.980;18.780;2022-10-16T19:37:42;11.80;;;6.72;;
72325;SDS011;60278;47.980;18.780;2022-10-16T19:41:14;11.13;;;6.80;;
72325;SDS011;60278;47.980;18.780;2022-10-16T19:44:47;12.63;;;7.63;;
72325;SDS011;60278;47.980;18.780;2022-10-16T19:48:18;12.95;;;6.78;;
72325;SDS011;60278;47.980;18.780;2022-10-16T19:51:52;10.70;;;6.87;;
72325;SDS011;60278;47.980;18.780;2022-10-16T19:55:24;11.02;;;7.13;;
72325;SDS011;60278;47.980;18.780;2022-10-16T19:58:55;14.30;;;7.50;;
72325;SDS011;60278;47.980;18.780;2022-10-16T20:02:27;13.37;;;7.73;;
72325;SDS011;60278;47.980;18.780;2022-10-16T20:05:58;15.23;;;7.57;;
72325;SDS011;60278;47.980;18.780;2022-10-16T20:09:35;14.15;;;8.57;;
72325;SDS011;60278;47.980;18.780;2022-10-16T20:13:06;12.23;;;7.22;;
72325;SDS011;60278;47.980;18.780;2022-10-16T20:16:37;14.07;;;7.97;;
72325;SDS011;60278;47.980;18.780;2022-10-16T20:20:10;15.80;;;8.07;;
72325;SDS011;60278;47.980;18.780;2022-10-16T20:23:41;10.93;;;7.78;;
72325;SDS011;60278;47.980;18.780;2022-10-16T20:27:12;15.17;;;7.87;;
72325;SDS011;60278;47.980;18.780;2022-10-16T20:30:44;12.60;;;7.82;;
72325;SDS011;60278;47.980;18.780;2022-10-16T20:34:16;14.02;;;8.68;;
72325;SDS011;60278;47.980;18.780;2022-10-16T20:37:47;22.07;;;10.33;;
72325;SDS011;60278;47.980;18.780;2022-10-16T20:41:18;13.65;;;9.10;;
72325;SDS011;60278;47.980;18.780;2022-10-16T20:44:50;15.63;;;9.27;;
72325;SDS011;60278;47.980;18.780;2022-10-16T20:48:21;12.57;;;7.60;;
72325;SDS011;60278;47.980;18.780;2022-10-16T20:51:52;16.30;;;8.00;;
72325;SDS011;60278;47.980;18.780;2022-10-16T20:55:23;14.82;;;7.63;;
72325;SDS011;60278;47.980;18.780;2022-10-16T20:58:55;14.57;;;7.13;;
72325;SDS011;60278;47.980;18.780;2022-10-16T21:02:27;17.70;;;8.50;;
72325;SDS011;60278;47.980;18.780;2022-10-16T21:05:58;15.30;;;8.25;;
72325;SDS011;60278;47.980;18.780;2022-10-16T21:09:29;22.98;;;9.50;;
72325;SDS011;60278;47.980;18.780;2022-10-16T21:13:00;11.73;;;7.07;;
72325;SDS011;60278;47.980;18.780;2022-10-16T21:16:31;15.02;;;8.05;;
72325;SDS011;60278;47.980;18.780;2022-10-16T21:20:02;14.60;;;7.55;;
72325;SDS011;60278;47.980;18.780;2022-10-16T21:23:33;13.40;;;7.63;;
72325;SDS011;60278;47.980;18.780;2022-10-16T21:27:05;11.97;;;6.77;;
72325;SDS011;60278;47.980;18.780;2022-10-16T21:30:36;16.45;;;7.65;;
72325;SDS011;60278;47.980;18.780;2022-10-16T21:34:07;11.93;;;7.20;;
72325;SDS011;60278;47.980;18.780;2022-10-16T21:37:39;11.90;;;6.77;;
72325;SDS011;60278;47.980;18.780;2022-10-16T21:41:11;11.18;;;7.32;;
72325;SDS011;60278;47.980;18.780;2022-10-16T21:44:43;14.40;;;7.80;;
72325;SDS011;60278;47.980;18.780;2022-10-16T21:48:14;12.40;;;7.70;;
72325;SDS011;60278;47.980;18.780;2022-10-16T21:51:46;15.70;;;8.32;;
72325;SDS011;60278;47.980;18.780;2022-10-16T21:55:19;13.80;;;8.32;;
72325;SDS011;60278;47.980;18.780;2022-10-16T21:58:50;19.30;;;8.38;;
72325;SDS011;60278;47.980;18.780;2022-10-16T22:02:21;14.57;;;7.23;;
72325;SDS011;60278;47.980;18.780;2022-10-16T22:05:52;14.88;;;8.30;;
72325;SDS011;60278;47.980;18.780;2022-10-16T22:09:23;13.88;;;8.57;;
72325;SDS011;60278;47.980;18.780;2022-10-16T22:12:54;15.47;;;7.93;;
72325;SDS011;60278;47.980;18.780;2022-10-16T22:16:26;12.98;;;7.90;;
72325;SDS011;60278;47.980;18.780;2022-10-16T22:19:57;13.18;;;7.45;;
72325;SDS011;60278;47.980;18.780;2022-10-16T22:23:28;9.40;;;6.90;;
72325;SDS011;60278;47.980;18.780;2022-10-16T22:26:59;12.73;;;7.20;;
72325;SDS011;60278;47.980;18.780;2022-10-16T22:30:30;11.77;;;7.10;;
72325;SDS011;60278;47.980;18.780;2022-10-16T22:34:02;14.80;;;7.70;;
72325;SDS011;60278;47.980;18.780;2022-10-16T22:37:33;12.90;;;7.53;;
72325;SDS011;60278;47.980;18.780;2022-10-16T22:41:06;14.18;;;7.93;;
72325;SDS011;60278;47.980;18.780;2022-10-16T22:44:39;12.80;;;7.47;;
72325;SDS011;60278;47.980;18.780;2022-10-16T22:48:10;12.30;;;7.33;;
72325;SDS011;60278;47.980;18.780;2022-10-16T22:51:41;13.95;;;8.18;;